sensor_id;sensor_type;location;lat;lon;timestamp;P1;durP1;ratioP1;P2;durP2;ratioP2
4305;SDS011;2166;49.926;8.608;2023-08-17T00:00:04;0.30;;;0.30;;
4305;SDS011;2166;49.926;8.608;2023-08-17T00:02:35;0.10;;;0.10;;
4305;SDS011;2166;49.926;8.608;2023-08-17T00:05:03;0.60;;;0.20;;
4305;SDS011;2166;49.926;8.608;2023-08-17T00:07:33;0.10;;;0.10;;
4305;SDS011;2166;49.926;8.608;2023-08-17T00:10:02;0.10;;;0.10;;
4305;SDS011;2166;49.926;8.608;2023-08-17T00:12:31;1.63;;;0.70;;
4305;SDS011;2166;49.926;8.608;2023-08-17T00:15:00;0.13;;;0.13;;
4305;SDS011;2166;49.926;8.608;2023-08-17T00:17:31;0.08;;;0.08;;
4305;SDS011;2166;49.926;8.608;2023-08-17T00:19:59;0.10;;;0.10;;
4305;SDS011;2166;49.926;8.608;2023-08-17T00:22:31;0.10;;;0.10;;
4305;SDS011;2166;49.926;8.608;2023-08-17T00:25:00;0.10;;;0.10;;
4305;SDS011;2166;49.926;8.608;2023-08-17T00:27:31;0.00;;;0.00;;
4305;SDS011;2166;49.926;8.608;2023-08-17T00:30:01;0.00;;;0.00;;
4305;SDS011;2166;49.926;8.608;2023-08-17T00:32:31;0.80;;;0.52;;
4305;SDS011;2166;49.926;8.608;2023-08-17T00:35:00;0.15;;;0.15;;
4305;SDS011;2166;49.926;8.608;2023-08-17T00:37:29;0.10;;;0.10;;
4305;SDS011;2166;49.926;8.608;2023-08-17T00:39:59;0.00;;;0.00;;
4305;SDS011;2166;49.926;8.608;2023-08-17T00:42:27;0.30;;;0.30;;
4305;SDS011;2166;49.926;8.608;2023-08-17T00:44:57;0.05;;;0.05;;
4305;SDS011;2166;49.926;8.608;2023-08-17T00:47:25;0.00;;;0.00;;
4305;SDS011;2166;49.926;8.608;2023-08-17T00:49:57;0.03;;;0.03;;
4305;SDS011;2166;49.926;8.608;2023-08-17T00:52:27;0.30;;;0.30;;
4305;SDS011;2166;49.926;8.608;2023-08-17T00:54:57;0.65;;;0.65;;
4305;SDS011;2166;49.926;8.608;2023-08-17T00:57:27;0.00;;;0.00;;
4305;SDS011;2166;49.926;8.608;2023-08-17T00:59:59;0.10;;;0.10;;
4305;SDS011;2166;49.926;8.608;2023-08-17T01:02:32;0.20;;;0.20;;
4305;SDS011;2166;49.926;8.608;2023-08-17T01:05:04;0.10;;;0.10;;
4305;SDS011;2166;49.926;8.608;2023-08-17T01:07:33;0.10;;;0.10;;
4305;SDS011;2166;49.926;8.608;2023-08-17T01:10:05;0.10;;;0.10;;
4305;SDS011;2166;49.926;8.608;2023-08-17T01:12:36;0.15;;;0.15;;
4305;SDS011;2166;49.926;8.608;2023-08-17T01:15:11;2.13;;;0.60;;
4305;SDS011;2166;49.926;8.608;2023-08-17T01:17:43;0.00;;;0.00;;
4305;SDS011;2166;49.926;8.608;2023-08-17T01:20:17;0.10;;;0.10;;
4305;SDS011;2166;49.926;8.608;2023-08-17T01:22:49;0.10;;;0.10;;
4305;SDS011;2166;49.926;8.608;2023-08-17T01:25:22;0.20;;;0.20;;
4305;SDS011;2166;49.926;8.608;2023-08-17T01:27:50;0.08;;;0.08;;
4305;SDS011;2166;49.926;8.608;2023-08-17T01:30:19;0.00;;;0.00;;
4305;SDS011;2166;49.926;8.608;2023-08-17T01:32:48;0.10;;;0.10;;
4305;SDS011;2166;49.926;8.608;2023-08-17T01:35:21;0.40;;;0.40;;
4305;SDS011;2166;49.926;8.608;2023-08-17T01:37:56;0.10;;;0.10;;
4305;SDS011;2166;49.926;8.608;2023-08-17T01:40:29;0.10;;;0.10;;
4305;SDS011;2166;49.926;8.608;2023-08-17T01:43:02;0.35;;;0.35;;
4305;SDS011;2166;49.926;8.608;2023-08-17T01:45:31;0.45;;;0.45;;
4305;SDS011;2166;49.926;8.608;2023-08-17T01:48:00;1.13;;;0.52;;
4305;SDS011;2166;49.926;8.608;2023-08-17T01:50:30;0.00;;;0.00;;
4305;SDS011;2166;49.926;8.608;2023-08-17T01:52:59;1.65;;;0.43;;
4305;SDS011;2166;49.926;8.608;2023-08-17T01:55:30;0.20;;;0.20;;
4305;SDS011;2166;49.926;8.608;2023-08-17T01:57:58;0.22;;;0.22;;
4305;SDS011;2166;49.926;8.608;2023-08-17T02:00:27;0.30;;;0.30;;
4305;SDS011;2166;49.926;8.608;2023-08-17T02:02:55;0.32;;;0.32;;
4305;SDS011;2166;49.926;8.608;2023-08-17T02:05:24;0.30;;;0.30;;
4305;SDS011;2166;49.926;8.608;2023-08-17T02:07:55;0.15;;;0.15;;
4305;SDS011;2166;49.926;8.608;2023-08-17T02:10:27;0.32;;;0.32;;
4305;SDS011;2166;49.926;8.608;2023-08-17T02:12:57;0.05;;;0.05;;
4305;SDS011;2166;49.926;8.608;2023-08-17T02:15:42;0.08;;;0.08;;
4305;SDS011;2166;49.926;8.608;2023-08-17T02:18:11;0.47;;;0.47;;
4305;SDS011;2166;49.926;8.608;2023-08-17T02:20:39;0.28;;;0.28;;
4305;SDS011;2166;49.926;8.608;2023-08-17T02:23:10;2.75;;;1.45;;
4305;SDS011;2166;49.926;8.608;2023-08-17T02:25:38;0.00;;;0.00;;
4305;SDS011;2166;49.926;8.608;2023-08-17T02:28:09;0.28;;;0.28;;
4305;SDS011;2166;49.926;8.608;2023-08-17T02:30:38;0.00;;;0.00;;
4305;SDS011;2166;49.926;8.608;2023-08-17T02:33:06;0.10;;;0.10;;
4305;SDS011;2166;49.926;8.608;2023-08-17T02:35:35;0.10;;;0.10;;
4305;SDS011;2166;49.926;8.608;2023-08-17T02:38:03;0.10;;;0.10;;
4305;SDS011;2166;49.926;8.608;2023-08-17T02:40:32;0.10;;;0.10;;
4305;SDS011;2166;49.926;8.608;2023-08-17T02:43:01;2.47;;;0.57;;
4305;SDS011;2166;49.926;8.608;2023-08-17T02:45:31;0.20;;;0.20;;
4305;SDS011;2166;49.926;8.608;2023-08-17T02:48:03;0.85;;;0.82;;
4305;SDS011;2166;49.926;8.608;2023-08-17T02:50:32;0.38;;;0.38;;
4305;SDS011;2166;49.926;8.608;2023-08-17T02:53:00;1.17;;;1.08;;
4305;SDS011;2166;49.926;8.608;2023-08-17T02:55:30;0.45;;;0.45;;
4305;SDS011;2166;49.926;8.608;2023-08-17T02:57:58;0.90;;;0.90;;
4305;SDS011;2166;49.926;8.608;2023-08-17T03:00:26;0.47;;;0.47;;
4305;SDS011;2166;49.926;8.608;2023-08-17T03:02:57;0.30;;;0.30;;
4305;SDS011;2166;49.926;8.608;2023-08-17T03:05:26;0.52;;;0.52;;
4305;SDS011;2166;49.926;8.608;2023-08-17T03:07:54;0.35;;;0.35;;
4305;SDS011;2166;49.926;8.608;2023-08-17T03:10:23;0.68;;;0.68;;
4305;SDS011;2166;49.926;8.608;2023-08-17T03:12:51;0.47;;;0.47;;
4305;SDS011;2166;49.926;8.608;2023-08-17T03:15:21;0.63;;;0.63;;
4305;SDS011;2166;49.926;8.608;2023-08-17T03:17:49;0.50;;;0.50;;
4305;SDS011;2166;49.926;8.608;2023-08-17T03:20:19;0.08;;;0.08;;
4305;SDS011;2166;49.926;8.608;2023-08-17T03:22:47;0.28;;;0.28;;
4305;SDS011;2166;49.926;8.608;2023-08-17T03:25:16;1.65;;;1.55;;
4305;SDS011;2166;49.926;8.608;2023-08-17T03:27:46;0.65;;;0.50;;
4305;SDS011;2166;49.926;8.608;2023-08-17T03:30:15;0.65;;;0.35;;
4305;SDS011;2166;49.926;8.608;2023-08-17T03:32:43;0.90;;;0.90;;
4305;SDS011;2166;49.926;8.608;2023-08-17T03:35:12;0.30;;;0.30;;
4305;SDS011;2166;49.926;8.608;2023-08-17T03:37:42;0.85;;;0.85;;
4305;SDS011;2166;49.926;8.608;2023-08-17T03:40:13;0.10;;;0.10;;
4305;SDS011;2166;49.926;8.608;2023-08-17T03:42:43;0.85;;;0.50;;
4305;SDS011;2166;49.926;8.608;2023-08-17T03:45:13;0.10;;;0.10;;
4305;SDS011;2166;49.926;8.608;2023-08-17T03:47:42;0.10;;;0.10;;
4305;SDS011;2166;49.926;8.608;2023-08-17T03:50:11;0.70;;;0.70;;
4305;SDS011;2166;49.926;8.608;2023-08-17T03:52:44;0.57;;;0.57;;
4305;SDS011;2166;49.926;8.608;2023-08-17T03:55:13;0.70;;;0.70;;
4305;SDS011;2166;49.926;8.608;2023-08-17T03:57:42;0.30;;;0.30;;
4305;SDS011;2166;49.926;8.608;2023-08-17T04:00:11;0.38;;;0.38;;
4305;SDS011;2166;49.926;8.608;2023-08-17T04:02:40;18.30;;;1.33;;
4305;SDS011;2166;49.926;8.608;2023-08-17T04:05:14;0.20;;;0.20;;
4305;SDS011;2166;49.926;8.608;2023-08-17T04:07:42;0.63;;;0.63;;
4305;SDS011;2166;49.926;8.608;2023-08-17T04:10:14;0.30;;;0.30;;
4305;SDS011;2166;49.926;8.608;2023-08-17T04:12:44;1.35;;;1.20;;
4305;SDS011;2166;49.926;8.608;2023-08-17T04:15:13;0.10;;;0.10;;
4305;SDS011;2166;49.926;8.608;2023-08-17T04:17:44;0.90;;;0.75;;
4305;SDS011;2166;49.926;8.608;2023-08-17T04:20:13;0.38;;;0.38;;
4305;SDS011;2166;49.926;8.608;2023-08-17T04:22:42;1.38;;;1.25;;
4305;SDS011;2166;49.926;8.608;2023-08-17T04:25:12;0.70;;;0.40;;
4305;SDS011;2166;49.926;8.608;2023-08-17T04:27:42;0.10;;;0.10;;
4305;SDS011;2166;49.926;8.608;2023-08-17T04:30:11;0.93;;;0.85;;
4305;SDS011;2166;49.926;8.608;2023-08-17T04:32:50;1.40;;;0.82;;
4305;SDS011;2166;49.926;8.608;2023-08-17T04:35:20;0.65;;;0.65;;
4305;SDS011;2166;49.926;8.608;2023-08-17T04:37:48;0.57;;;0.57;;
4305;SDS011;2166;49.926;8.608;2023-08-17T04:40:18;0.47;;;0.47;;
4305;SDS011;2166;49.926;8.608;2023-08-17T04:42:48;0.35;;;0.35;;
4305;SDS011;2166;49.926;8.608;2023-08-17T04:45:16;0.40;;;0.40;;
4305;SDS011;2166;49.926;8.608;2023-08-17T04:47:47;0.57;;;0.57;;
4305;SDS011;2166;49.926;8.608;2023-08-17T04:50:16;0.00;;;0.00;;
4305;SDS011;2166;49.926;8.608;2023-08-17T04:52:48;1.77;;;0.90;;
4305;SDS011;2166;49.926;8.608;2023-08-17T04:55:17;0.30;;;0.30;;
4305;SDS011;2166;49.926;8.608;2023-08-17T04:57:48;2.72;;;1.30;;
4305;SDS011;2166;49.926;8.608;2023-08-17T05:00:16;0.43;;;0.43;;
4305;SDS011;2166;49.926;8.608;2023-08-17T05:02:46;2.67;;;0.32;;
4305;SDS011;2166;49.926;8.608;2023-08-17T05:05:16;1.88;;;1.00;;
4305;SDS011;2166;49.926;8.608;2023-08-17T05:07:45;5.28;;;0.65;;
4305;SDS011;2166;49.926;8.608;2023-08-17T05:10:13;0.10;;;0.10;;
4305;SDS011;2166;49.926;8.608;2023-08-17T05:12:46;0.50;;;0.50;;
4305;SDS011;2166;49.926;8.608;2023-08-17T05:15:15;1.20;;;1.05;;
4305;SDS011;2166;49.926;8.608;2023-08-17T05:17:45;1.52;;;1.42;;
4305;SDS011;2166;49.926;8.608;2023-08-17T05:20:14;0.00;;;0.00;;
4305;SDS011;2166;49.926;8.608;2023-08-17T05:22:42;0.30;;;0.30;;
4305;SDS011;2166;49.926;8.608;2023-08-17T05:25:12;0.10;;;0.10;;
4305;SDS011;2166;49.926;8.608;2023-08-17T05:27:43;0.00;;;0.00;;
4305;SDS011;2166;49.926;8.608;2023-08-17T05:30:12;0.68;;;0.35;;
4305;SDS011;2166;49.926;8.608;2023-08-17T05:32:45;0.20;;;0.20;;
4305;SDS011;2166;49.926;8.608;2023-08-17T05:35:13;0.03;;;0.03;;
4305;SDS011;2166;49.926;8.608;2023-08-17T05:37:42;4.53;;;1.60;;
4305;SDS011;2166;49.926;8.608;2023-08-17T05:40:12;0.13;;;0.13;;
4305;SDS011;2166;49.926;8.608;2023-08-17T05:42:42;0.40;;;0.40;;
4305;SDS011;2166;49.926;8.608;2023-08-17T05:45:11;0.40;;;0.40;;
4305;SDS011;2166;49.926;8.608;2023-08-17T05:47:39;0.10;;;0.10;;
4305;SDS011;2166;49.926;8.608;2023-08-17T05:50:08;0.40;;;0.40;;
4305;SDS011;2166;49.926;8.608;2023-08-17T05:52:37;0.40;;;0.40;;
4305;SDS011;2166;49.926;8.608;2023-08-17T05:55:06;0.35;;;0.35;;
4305;SDS011;2166;49.926;8.608;2023-08-17T05:57:35;1.00;;;0.40;;
4305;SDS011;2166;49.926;8.608;2023-08-17T06:00:05;0.10;;;0.10;;
4305;SDS011;2166;49.926;8.608;2023-08-17T06:02:41;0.20;;;0.20;;
4305;SDS011;2166;49.926;8.608;2023-08-17T06:05:10;0.35;;;0.35;;
4305;SDS011;2166;49.926;8.608;2023-08-17T06:07:41;0.17;;;0.17;;
4305;SDS011;2166;49.926;8.608;2023-08-17T06:10:09;0.20;;;0.20;;
4305;SDS011;2166;49.926;8.608;2023-08-17T06:12:38;0.00;;;0.00;;
4305;SDS011;2166;49.926;8.608;2023-08-17T06:15:09;0.45;;;0.45;;
4305;SDS011;2166;49.926;8.608;2023-08-17T06:17:37;0.43;;;0.17;;
4305;SDS011;2166;49.926;8.608;2023-08-17T06:20:07;0.10;;;0.10;;
4305;SDS011;2166;49.926;8.608;2023-08-17T06:22:37;0.38;;;0.38;;
4305;SDS011;2166;49.926;8.608;2023-08-17T06:25:05;0.30;;;0.30;;
4305;SDS011;2166;49.926;8.608;2023-08-17T06:27:35;0.13;;;0.13;;
4305;SDS011;2166;49.926;8.608;2023-08-17T06:30:05;0.52;;;0.40;;
4305;SDS011;2166;49.926;8.608;2023-08-17T06:32:37;0.52;;;0.52;;
4305;SDS011;2166;49.926;8.608;2023-08-17T06:35:05;0.17;;;0.17;;
4305;SDS011;2166;49.926;8.608;2023-08-17T06:37:38;0.20;;;0.20;;
4305;SDS011;2166;49.926;8.608;2023-08-17T06:40:07;0.00;;;0.00;;
4305;SDS011;2166;49.926;8.608;2023-08-17T06:42:36;0.20;;;0.20;;
4305;SDS011;2166;49.926;8.608;2023-08-17T06:45:06;0.95;;;0.90;;
4305;SDS011;2166;49.926;8.608;2023-08-17T06:47:36;0.40;;;0.40;;
4305;SDS011;2166;49.926;8.608;2023-08-17T06:50:06;0.52;;;0.45;;
4305;SDS011;2166;49.926;8.608;2023-08-17T06:52:39;0.22;;;0.22;;
4305;SDS011;2166;49.926;8.608;2023-08-17T06:55:08;0.08;;;0.08;;
4305;SDS011;2166;49.926;8.608;2023-08-17T06:57:37;0.20;;;0.20;;
4305;SDS011;2166;49.926;8.608;2023-08-17T07:00:07;0.10;;;0.10;;
4305;SDS011;2166;49.926;8.608;2023-08-17T07:02:39;0.08;;;0.08;;
4305;SDS011;2166;49.926;8.608;2023-08-17T07:05:19;0.00;;;0.00;;
4305;SDS011;2166;49.926;8.608;2023-08-17T07:07:48;0.00;;;0.00;;
4305;SDS011;2166;49.926;8.608;2023-08-17T07:10:16;0.15;;;0.15;;
4305;SDS011;2166;49.926;8.608;2023-08-17T07:12:45;0.10;;;0.10;;
4305;SDS011;2166;49.926;8.608;2023-08-17T07:15:14;0.13;;;0.13;;
4305;SDS011;2166;49.926;8.608;2023-08-17T07:17:44;6.88;;;1.05;;
4305;SDS011;2166;49.926;8.608;2023-08-17T07:20:12;0.40;;;0.40;;
4305;SDS011;2166;49.926;8.608;2023-08-17T07:22:43;9.43;;;1.05;;
4305;SDS011;2166;49.926;8.608;2023-08-17T07:25:11;0.00;;;0.00;;
4305;SDS011;2166;49.926;8.608;2023-08-17T07:27:40;0.47;;;0.47;;
4305;SDS011;2166;49.926;8.608;2023-08-17T07:30:09;0.40;;;0.40;;
4305;SDS011;2166;49.926;8.608;2023-08-17T07:32:38;2.67;;;0.90;;
4305;SDS011;2166;49.926;8.608;2023-08-17T07:35:08;2.30;;;1.08;;
4305;SDS011;2166;49.926;8.608;2023-08-17T07:37:39;0.00;;;0.00;;
4305;SDS011;2166;49.926;8.608;2023-08-17T07:40:11;0.00;;;0.00;;
4305;SDS011;2166;49.926;8.608;2023-08-17T07:42:39;0.10;;;0.10;;
4305;SDS011;2166;49.926;8.608;2023-08-17T07:45:08;0.00;;;0.00;;
4305;SDS011;2166;49.926;8.608;2023-08-17T07:47:39;0.00;;;0.00;;
4305;SDS011;2166;49.926;8.608;2023-08-17T07:50:10;0.20;;;0.20;;
4305;SDS011;2166;49.926;8.608;2023-08-17T07:52:40;0.15;;;0.15;;
4305;SDS011;2166;49.926;8.608;2023-08-17T07:55:09;0.00;;;0.00;;
4305;SDS011;2166;49.926;8.608;2023-08-17T07:57:38;0.10;;;0.10;;
4305;SDS011;2166;49.926;8.608;2023-08-17T08:00:06;0.32;;;0.28;;
4305;SDS011;2166;49.926;8.608;2023-08-17T08:02:35;0.10;;;0.10;;
4305;SDS011;2166;49.926;8.608;2023-08-17T08:05:04;0.05;;;0.05;;
4305;SDS011;2166;49.926;8.608;2023-08-17T08:07:36;0.00;;;0.00;;
4305;SDS011;2166;49.926;8.608;2023-08-17T08:10:05;1.35;;;0.85;;
4305;SDS011;2166;49.926;8.608;2023-08-17T08:12:34;0.10;;;0.10;;
4305;SDS011;2166;49.926;8.608;2023-08-17T08:15:02;1.00;;;0.40;;
4305;SDS011;2166;49.926;8.608;2023-08-17T08:17:31;1.08;;;0.38;;
4305;SDS011;2166;49.926;8.608;2023-08-17T08:20:00;0.00;;;0.00;;
4305;SDS011;2166;49.926;8.608;2023-08-17T08:22:28;0.32;;;0.20;;
4305;SDS011;2166;49.926;8.608;2023-08-17T08:25:00;0.10;;;0.10;;
4305;SDS011;2166;49.926;8.608;2023-08-17T08:27:28;0.40;;;0.40;;
4305;SDS011;2166;49.926;8.608;2023-08-17T08:29:56;0.25;;;0.20;;
4305;SDS011;2166;49.926;8.608;2023-08-17T08:32:25;4.85;;;3.72;;
4305;SDS011;2166;49.926;8.608;2023-08-17T08:34:55;5.72;;;4.75;;
4305;SDS011;2166;49.926;8.608;2023-08-17T08:37:23;4.72;;;4.22;;
4305;SDS011;2166;49.926;8.608;2023-08-17T08:39:52;7.10;;;3.50;;
4305;SDS011;2166;49.926;8.608;2023-08-17T08:42:24;4.60;;;3.13;;
4305;SDS011;2166;49.926;8.608;2023-08-17T08:44:53;3.15;;;2.92;;
4305;SDS011;2166;49.926;8.608;2023-08-17T08:47:21;6.30;;;2.78;;
4305;SDS011;2166;49.926;8.608;2023-08-17T08:49:55;5.65;;;3.45;;
4305;SDS011;2166;49.926;8.608;2023-08-17T08:52:30;3.53;;;3.22;;
4305;SDS011;2166;49.926;8.608;2023-08-17T08:55:10;5.45;;;3.30;;
4305;SDS011;2166;49.926;8.608;2023-08-17T08:57:41;2.72;;;2.50;;
4305;SDS011;2166;49.926;8.608;2023-08-17T09:00:17;4.60;;;3.03;;
4305;SDS011;2166;49.926;8.608;2023-08-17T09:02:49;3.00;;;2.78;;
4305;SDS011;2166;49.926;8.608;2023-08-17T09:05:21;7.20;;;3.10;;
4305;SDS011;2166;49.926;8.608;2023-08-17T09:07:50;5.32;;;3.42;;
4305;SDS011;2166;49.926;8.608;2023-08-17T09:10:20;3.70;;;3.38;;
4305;SDS011;2166;49.926;8.608;2023-08-17T09:12:50;3.55;;;3.25;;
4305;SDS011;2166;49.926;8.608;2023-08-17T09:15:19;12.27;;;3.38;;
4305;SDS011;2166;49.926;8.608;2023-08-17T09:17:48;4.03;;;3.20;;
4305;SDS011;2166;49.926;8.608;2023-08-17T09:20:37;4.25;;;3.60;;
4305;SDS011;2166;49.926;8.608;2023-08-17T09:23:13;4.25;;;3.30;;
4305;SDS011;2166;49.926;8.608;2023-08-17T09:25:44;4.00;;;3.30;;
4305;SDS011;2166;49.926;8.608;2023-08-17T09:28:21;4.82;;;3.53;;
4305;SDS011;2166;49.926;8.608;2023-08-17T09:30:50;3.83;;;3.28;;
4305;SDS011;2166;49.926;8.608;2023-08-17T09:33:20;4.72;;;3.35;;
4305;SDS011;2166;49.926;8.608;2023-08-17T09:35:50;3.22;;;2.92;;
4305;SDS011;2166;49.926;8.608;2023-08-17T09:38:25;3.85;;;3.00;;
4305;SDS011;2166;49.926;8.608;2023-08-17T09:40:54;5.03;;;3.42;;
4305;SDS011;2166;49.926;8.608;2023-08-17T09:43:26;4.07;;;2.78;;
4305;SDS011;2166;49.926;8.608;2023-08-17T09:45:57;3.60;;;3.30;;
4305;SDS011;2166;49.926;8.608;2023-08-17T09:48:25;3.97;;;3.58;;
4305;SDS011;2166;49.926;8.608;2023-08-17T09:50:58;5.32;;;3.63;;
4305;SDS011;2166;49.926;8.608;2023-08-17T09:53:28;5.63;;;3.80;;
4305;SDS011;2166;49.926;8.608;2023-08-17T09:55:57;8.82;;;4.60;;
4305;SDS011;2166;49.926;8.608;2023-08-17T09:58:28;5.15;;;3.63;;
4305;SDS011;2166;49.926;8.608;2023-08-17T10:00:57;3.20;;;2.90;;
4305;SDS011;2166;49.926;8.608;2023-08-17T10:03:34;3.43;;;2.50;;
4305;SDS011;2166;49.926;8.608;2023-08-17T10:06:05;2.35;;;1.95;;
4305;SDS011;2166;49.926;8.608;2023-08-17T10:08:36;2.60;;;2.22;;
4305;SDS011;2166;49.926;8.608;2023-08-17T10:11:09;2.90;;;2.70;;
4305;SDS011;2166;49.926;8.608;2023-08-17T10:13:42;3.50;;;2.65;;
4305;SDS011;2166;49.926;8.608;2023-08-17T10:16:17;2.50;;;2.15;;
4305;SDS011;2166;49.926;8.608;2023-08-17T10:18:58;5.03;;;2.50;;
4305;SDS011;2166;49.926;8.608;2023-08-17T10:21:36;2.67;;;2.40;;
4305;SDS011;2166;49.926;8.608;2023-08-17T10:26:35;2.35;;;1.75;;
4305;SDS011;2166;49.926;8.608;2023-08-17T10:29:06;2.10;;;1.67;;
4305;SDS011;2166;49.926;8.608;2023-08-17T10:31:43;2.40;;;2.00;;
4305;SDS011;2166;49.926;8.608;2023-08-17T10:34:13;4.07;;;2.08;;
4305;SDS011;2166;49.926;8.608;2023-08-17T10:36:42;2.80;;;2.28;;
4305;SDS011;2166;49.926;8.608;2023-08-17T10:39:17;2.30;;;2.00;;
4305;SDS011;2166;49.926;8.608;2023-08-17T10:41:50;4.43;;;1.98;;
4305;SDS011;2166;49.926;8.608;2023-08-17T10:47:25;2.50;;;1.80;;
4305;SDS011;2166;49.926;8.608;2023-08-17T10:50:03;3.22;;;1.80;;
4305;SDS011;2166;49.926;8.608;2023-08-17T10:52:33;4.30;;;1.77;;
4305;SDS011;2166;49.926;8.608;2023-08-17T10:55:04;2.67;;;2.10;;
4305;SDS011;2166;49.926;8.608;2023-08-17T10:57:35;2.38;;;1.85;;
4305;SDS011;2166;49.926;8.608;2023-08-17T11:00:15;4.50;;;2.00;;
4305;SDS011;2166;49.926;8.608;2023-08-17T11:02:53;3.03;;;2.03;;
4305;SDS011;2166;49.926;8.608;2023-08-17T11:05:40;3.88;;;2.03;;
4305;SDS011;2166;49.926;8.608;2023-08-17T11:08:10;2.75;;;2.08;;
4305;SDS011;2166;49.926;8.608;2023-08-17T11:10:56;3.17;;;2.15;;
4305;SDS011;2166;49.926;8.608;2023-08-17T11:13:29;2.75;;;1.80;;
4305;SDS011;2166;49.926;8.608;2023-08-17T11:15:59;1.83;;;1.50;;
4305;SDS011;2166;49.926;8.608;2023-08-17T11:18:31;3.83;;;1.85;;
4305;SDS011;2166;49.926;8.608;2023-08-17T11:21:01;2.20;;;1.35;;
4305;SDS011;2166;49.926;8.608;2023-08-17T11:23:32;1.63;;;1.33;;
4305;SDS011;2166;49.926;8.608;2023-08-17T11:26:02;2.05;;;1.50;;
4305;SDS011;2166;49.926;8.608;2023-08-17T11:28:31;2.47;;;1.20;;
4305;SDS011;2166;49.926;8.608;2023-08-17T11:31:08;2.15;;;1.40;;
4305;SDS011;2166;49.926;8.608;2023-08-17T11:33:40;2.90;;;1.40;;
4305;SDS011;2166;49.926;8.608;2023-08-17T11:36:08;2.50;;;1.30;;
4305;SDS011;2166;49.926;8.608;2023-08-17T11:38:38;1.83;;;1.20;;
4305;SDS011;2166;49.926;8.608;2023-08-17T11:41:08;1.05;;;0.90;;
4305;SDS011;2166;49.926;8.608;2023-08-17T11:43:44;2.55;;;1.23;;
4305;SDS011;2166;49.926;8.608;2023-08-17T11:46:14;1.85;;;0.82;;
4305;SDS011;2166;49.926;8.608;2023-08-17T11:48:45;1.27;;;0.90;;
4305;SDS011;2166;49.926;8.608;2023-08-17T11:51:15;1.17;;;0.95;;
4305;SDS011;2166;49.926;8.608;2023-08-17T11:53:43;1.33;;;0.98;;
4305;SDS011;2166;49.926;8.608;2023-08-17T11:56:14;2.05;;;0.80;;
4305;SDS011;2166;49.926;8.608;2023-08-17T11:58:43;3.53;;;1.00;;
4305;SDS011;2166;49.926;8.608;2023-08-17T12:01:13;1.45;;;0.80;;
4305;SDS011;2166;49.926;8.608;2023-08-17T12:03:45;2.33;;;0.90;;
4305;SDS011;2166;49.926;8.608;2023-08-17T12:06:16;2.60;;;0.90;;
4305;SDS011;2166;49.926;8.608;2023-08-17T12:08:45;3.58;;;1.23;;
4305;SDS011;2166;49.926;8.608;2023-08-17T12:11:15;1.33;;;0.90;;
4305;SDS011;2166;49.926;8.608;2023-08-17T12:13:48;3.17;;;1.00;;
4305;SDS011;2166;49.926;8.608;2023-08-17T12:16:18;2.83;;;1.17;;
4305;SDS011;2166;49.926;8.608;2023-08-17T12:18:49;1.10;;;0.90;;
4305;SDS011;2166;49.926;8.608;2023-08-17T12:21:20;2.23;;;0.87;;
4305;SDS011;2166;49.926;8.608;2023-08-17T12:23:50;1.25;;;1.15;;
4305;SDS011;2166;49.926;8.608;2023-08-17T12:26:18;2.90;;;1.13;;
4305;SDS011;2166;49.926;8.608;2023-08-17T12:28:48;1.48;;;1.05;;
4305;SDS011;2166;49.926;8.608;2023-08-17T12:31:20;7.38;;;1.27;;
4305;SDS011;2166;49.926;8.608;2023-08-17T12:33:53;2.72;;;1.10;;
4305;SDS011;2166;49.926;8.608;2023-08-17T12:36:21;3.45;;;1.45;;
4305;SDS011;2166;49.926;8.608;2023-08-17T12:38:50;1.20;;;1.00;;
4305;SDS011;2166;49.926;8.608;2023-08-17T12:41:19;4.43;;;1.15;;
4305;SDS011;2166;49.926;8.608;2023-08-17T12:43:47;1.88;;;1.02;;
4305;SDS011;2166;49.926;8.608;2023-08-17T12:46:15;4.43;;;1.45;;
4305;SDS011;2166;49.926;8.608;2023-08-17T12:48:44;2.58;;;1.38;;
4305;SDS011;2166;49.926;8.608;2023-08-17T12:51:13;2.03;;;1.25;;
4305;SDS011;2166;49.926;8.608;2023-08-17T12:53:41;2.90;;;1.30;;
4305;SDS011;2166;49.926;8.608;2023-08-17T12:56:15;2.42;;;1.30;;
4305;SDS011;2166;49.926;8.608;2023-08-17T12:58:44;3.60;;;1.73;;
4305;SDS011;2166;49.926;8.608;2023-08-17T13:01:12;4.32;;;1.50;;
4305;SDS011;2166;49.926;8.608;2023-08-17T13:03:41;1.45;;;1.20;;
4305;SDS011;2166;49.926;8.608;2023-08-17T13:06:09;1.58;;;1.08;;
4305;SDS011;2166;49.926;8.608;2023-08-17T13:08:39;3.00;;;1.10;;
4305;SDS011;2166;49.926;8.608;2023-08-17T13:11:07;2.13;;;1.52;;
4305;SDS011;2166;49.926;8.608;2023-08-17T13:13:36;1.40;;;0.88;;
4305;SDS011;2166;49.926;8.608;2023-08-17T13:16:04;3.10;;;1.02;;
4305;SDS011;2166;49.926;8.608;2023-08-17T13:18:33;3.90;;;1.15;;
4305;SDS011;2166;49.926;8.608;2023-08-17T13:21:03;4.70;;;1.10;;
4305;SDS011;2166;49.926;8.608;2023-08-17T13:23:31;1.38;;;1.10;;
4305;SDS011;2166;49.926;8.608;2023-08-17T13:26:01;1.95;;;1.10;;
4305;SDS011;2166;49.926;8.608;2023-08-17T13:28:29;2.03;;;1.35;;
4305;SDS011;2166;49.926;8.608;2023-08-17T13:30:58;3.17;;;1.35;;
4305;SDS011;2166;49.926;8.608;2023-08-17T13:33:46;1.90;;;0.98;;
4305;SDS011;2166;49.926;8.608;2023-08-17T13:36:18;1.20;;;0.98;;
4305;SDS011;2166;49.926;8.608;2023-08-17T13:38:46;2.70;;;1.13;;
4305;SDS011;2166;49.926;8.608;2023-08-17T13:41:17;2.13;;;1.00;;
4305;SDS011;2166;49.926;8.608;2023-08-17T13:43:45;3.28;;;1.27;;
4305;SDS011;2166;49.926;8.608;2023-08-17T13:46:13;1.10;;;1.00;;
4305;SDS011;2166;49.926;8.608;2023-08-17T13:48:42;1.45;;;0.90;;
4305;SDS011;2166;49.926;8.608;2023-08-17T13:51:12;1.38;;;0.90;;
4305;SDS011;2166;49.926;8.608;2023-08-17T13:53:41;1.67;;;1.38;;
4305;SDS011;2166;49.926;8.608;2023-08-17T13:56:10;1.63;;;0.80;;
4305;SDS011;2166;49.926;8.608;2023-08-17T13:58:40;2.63;;;1.00;;
4305;SDS011;2166;49.926;8.608;2023-08-17T14:01:08;4.47;;;0.90;;
4305;SDS011;2166;49.926;8.608;2023-08-17T14:03:38;2.35;;;0.95;;
4305;SDS011;2166;49.926;8.608;2023-08-17T14:06:09;3.20;;;0.80;;
4305;SDS011;2166;49.926;8.608;2023-08-17T14:08:37;2.30;;;1.17;;
4305;SDS011;2166;49.926;8.608;2023-08-17T14:11:06;4.47;;;0.90;;
4305;SDS011;2166;49.926;8.608;2023-08-17T14:13:41;1.42;;;0.85;;
4305;SDS011;2166;49.926;8.608;2023-08-17T14:16:09;0.73;;;0.57;;
4305;SDS011;2166;49.926;8.608;2023-08-17T14:18:38;3.80;;;1.08;;
4305;SDS011;2166;49.926;8.608;2023-08-17T14:21:06;2.47;;;0.90;;
4305;SDS011;2166;49.926;8.608;2023-08-17T14:23:35;0.80;;;0.80;;
4305;SDS011;2166;49.926;8.608;2023-08-17T14:26:03;2.67;;;0.80;;
4305;SDS011;2166;49.926;8.608;2023-08-17T14:28:32;0.70;;;0.50;;
4305;SDS011;2166;49.926;8.608;2023-08-17T14:31:02;1.33;;;1.08;;
4305;SDS011;2166;49.926;8.608;2023-08-17T14:33:34;2.42;;;0.90;;
4305;SDS011;2166;49.926;8.608;2023-08-17T14:36:02;2.15;;;1.10;;
4305;SDS011;2166;49.926;8.608;2023-08-17T14:38:30;4.20;;;0.80;;
4305;SDS011;2166;49.926;8.608;2023-08-17T14:40:59;1.80;;;0.90;;
4305;SDS011;2166;49.926;8.608;2023-08-17T14:43:27;5.32;;;0.88;;
4305;SDS011;2166;49.926;8.608;2023-08-17T14:45:55;2.17;;;0.65;;
4305;SDS011;2166;49.926;8.608;2023-08-17T14:48:28;1.27;;;0.60;;
4305;SDS011;2166;49.926;8.608;2023-08-17T14:50:59;1.50;;;0.88;;
4305;SDS011;2166;49.926;8.608;2023-08-17T14:53:28;3.58;;;1.02;;
4305;SDS011;2166;49.926;8.608;2023-08-17T14:55:56;1.52;;;0.77;;
4305;SDS011;2166;49.926;8.608;2023-08-17T14:58:24;3.17;;;0.82;;
4305;SDS011;2166;49.926;8.608;2023-08-17T15:00:54;1.65;;;0.57;;
4305;SDS011;2166;49.926;8.608;2023-08-17T15:03:23;3.10;;;0.80;;
4305;SDS011;2166;49.926;8.608;2023-08-17T15:05:53;2.58;;;0.85;;
4305;SDS011;2166;49.926;8.608;2023-08-17T15:08:22;1.95;;;0.82;;
4305;SDS011;2166;49.926;8.608;2023-08-17T15:10:50;1.13;;;0.85;;
4305;SDS011;2166;49.926;8.608;2023-08-17T15:13:19;2.40;;;1.00;;
4305;SDS011;2166;49.926;8.608;2023-08-17T15:15:49;1.75;;;1.02;;
4305;SDS011;2166;49.926;8.608;2023-08-17T15:18:18;0.77;;;0.73;;
4305;SDS011;2166;49.926;8.608;2023-08-17T15:20:49;2.40;;;0.80;;
4305;SDS011;2166;49.926;8.608;2023-08-17T15:23:18;1.88;;;1.05;;
4305;SDS011;2166;49.926;8.608;2023-08-17T15:25:47;3.15;;;1.00;;
4305;SDS011;2166;49.926;8.608;2023-08-17T15:28:15;4.95;;;1.08;;
4305;SDS011;2166;49.926;8.608;2023-08-17T15:30:44;3.47;;;1.17;;
4305;SDS011;2166;49.926;8.608;2023-08-17T15:33:12;1.10;;;0.80;;
4305;SDS011;2166;49.926;8.608;2023-08-17T15:35:40;2.33;;;0.85;;
4305;SDS011;2166;49.926;8.608;2023-08-17T15:38:08;2.28;;;0.90;;